Time;durP1;ratioP1;P1;durP2;ratioP2;P2;SDS_P1;SDS_P2;PMS_P1;PMS_P2;Temp;Humidity;BMP_temperature;BMP_pressure;BME280_temperature;BME280_humidity;BME280_pressure;Samples;Min_cycle;Max_cycle;Signal;HPM_P1;HPM_P2
2022/06/28 00:00:39;;;;;;;0.40;0.20;;;;;;;15.52;100.00;100756.09;5052369;28;20820;-55
2022/06/28 00:03:06;;;;;;;0.40;0.20;;;;;;;15.52;100.00;100764.13;5052063;28;20471;-55
2022/06/28 00:05:33;;;;;;;0.40;0.20;;;;;;;15.38;100.00;100756.66;5052267;28;20447;-54
2022/06/28 00:07:59;;;;;;;0.40;0.20;;;;;;;15.53;100.00;100763.19;5052257;28;20497;-55
2022/06/28 00:10:26;;;;;;;0.40;0.20;;;;;;;15.32;100.00;100758.69;5052350;28;20454;-55
2022/06/28 00:12:52;;;;;;;0.40;0.20;;;;;;;15.35;100.00;100763.94;5052192;28;20471;-55
2022/06/28 00:18:04;;;;;;;0.40;0.20;;;;;;;15.29;100.00;100767.75;5052225;28;20924;-55
2022/06/28 00:20:31;;;;;;;0.40;0.20;;;;;;;15.34;100.00;100770.22;5039015;28;20443;-55
2022/06/28 00:22:57;;;;;;;0.40;0.20;;;;;;;15.46;100.00;100772.41;5049261;28;20481;-55
2022/06/28 00:25:24;;;;;;;0.40;0.20;;;;;;;15.19;100.00;100773.53;5046036;28;20969;-55
2022/06/28 00:27:50;;;;;;;0.40;0.20;;;;;;;15.24;100.00;100776.91;5043056;28;20501;-55
2022/06/28 00:30:17;;;;;;;0.40;0.20;;;;;;;15.27;100.00;100777.66;5052177;28;20451;-55
2022/06/28 00:32:43;;;;;;;0.40;0.20;;;;;;;15.14;100.00;100780.88;5052186;28;20475;-55
2022/06/28 00:35:10;;;;;;;0.40;0.20;;;;;;;15.00;100.00;100779.59;5052061;28;20447;-55
2022/06/28 00:37:36;;;;;;;0.40;0.20;;;;;;;15.04;100.00;100775.00;5052105;28;20547;-55
2022/06/28 00:40:03;;;;;;;0.40;0.20;;;;;;;14.98;100.00;100789.50;5051888;28;20985;-55
2022/06/28 00:42:30;;;;;;;0.40;0.20;;;;;;;15.01;100.00;100794.75;5051665;28;20474;-55
2022/06/28 00:44:58;;;;;;;0.40;0.20;;;;;;;15.02;100.00;100792.94;5051848;28;21023;-55
2022/06/28 00:47:26;;;;;;;0.40;0.20;;;;;;;14.92;100.00;100779.03;5051868;28;20490;-55
2022/06/28 00:49:56;;;;;;;0.40;0.20;;;;;;;14.96;100.00;100791.38;5051945;28;20828;-55
2022/06/28 00:52:23;;;;;;;0.40;0.20;;;;;;;14.96;100.00;100796.75;5052000;28;20474;-54
2022/06/28 00:54:49;;;;;;;0.40;0.20;;;;;;;14.95;100.00;100788.75;5050148;28;20469;-54
2022/06/28 00:57:16;;;;;;;0.40;0.30;;;;;;;15.00;100.00;100790.31;5051810;28;20989;-54
2022/06/28 00:59:42;;;;;;;0.40;0.20;;;;;;;14.94;100.00;100793.25;5051796;28;20451;-54
2022/06/28 01:02:09;;;;;;;0.40;0.20;;;;;;;14.87;100.00;100799.75;5042042;28;20444;-55
2022/06/28 01:04:36;;;;;;;0.40;0.20;;;;;;;14.67;100.00;100791.63;5048404;28;20486;-54
2022/06/28 01:07:03;;;;;;;0.40;0.20;;;;;;;14.73;100.00;100799.41;5051782;28;20466;-55
2022/06/28 01:09:30;;;;;;;0.40;0.20;;;;;;;14.71;100.00;100794.13;5050302;28;20462;-54
2022/06/28 01:11:56;;;;;;;0.40;0.20;;;;;;;14.60;100.00;100801.66;5051825;28;20486;-54
2022/06/28 01:14:24;;;;;;;0.40;0.20;;;;;;;14.66;100.00;100806.75;5051517;28;20458;-54
2022/06/28 01:16:51;;;;;;;0.40;0.20;;;;;;;14.75;100.00;100808.25;5051715;28;20830;-54
2022/06/28 01:19:17;;;;;;;0.40;0.20;;;;;;;14.72;100.00;100803.00;5051476;28;20440;-55
2022/06/28 01:21:48;;;;;;;0.40;0.20;;;;;;;14.82;100.00;100799.94;5045949;28;20457;-55
2022/06/28 01:24:14;;;;;;;0.40;0.20;;;;;;;14.93;100.00;100801.31;5045884;28;20979;-54
2022/06/28 01:26:43;;;;;;;0.40;0.20;;;;;;;14.90;100.00;100801.44;5048465;28;20482;-54
2022/06/28 01:29:10;;;;;;;0.40;0.20;;;;;;;14.81;100.00;100802.69;5053475;28;20486;-54
2022/06/28 01:31:36;;;;;;;0.40;0.20;;;;;;;14.72;100.00;100808.38;5055241;28;20456;-55
2022/06/28 01:34:03;;;;;;;0.40;0.20;;;;;;;14.87;100.00;100799.75;5053854;28;20520;-55
2022/06/28 01:36:30;;;;;;;0.40;0.20;;;;;;;14.77;100.00;100793.88;5055076;28;20457;-54
2022/06/28 01:38:56;;;;;;;0.40;0.20;;;;;;;14.70;100.00;100795.03;5055186;28;20903;-55
2022/06/28 01:41:32;;;;;;;0.40;0.20;;;;;;;14.59;100.00;100796.38;5055389;28;20537;-54
2022/06/28 01:44:01;;;;;;;0.40;0.20;;;;;;;14.49;100.00;100795.81;5054855;28;20473;-54
2022/06/28 01:46:28;;;;;;;0.40;0.20;;;;;;;14.55;100.00;100800.09;5054867;28;20454;-54
2022/06/28 01:48:55;;;;;;;0.40;0.20;;;;;;;14.35;100.00;100792.75;5054830;28;20508;-54
2022/06/28 01:51:22;;;;;;;0.40;0.20;;;;;;;14.41;100.00;100792.53;5054580;28;20446;-54
2022/06/28 01:53:48;;;;;;;0.40;0.20;;;;;;;14.28;100.00;100802.81;5052690;28;20467;-54
2022/06/28 01:56:16;;;;;;;0.40;0.20;;;;;;;14.29;100.00;100799.19;5054784;28;20447;-54
2022/06/28 01:58:42;;;;;;;0.40;0.20;;;;;;;14.38;100.00;100795.31;5054678;28;20451;-54
2022/06/28 02:01:09;;;;;;;0.40;0.20;;;;;;;14.37;100.00;100805.13;5054566;28;20458;-55
2022/06/28 02:03:35;;;;;;;0.40;0.20;;;;;;;14.34;100.00;100807.91;5054438;28;20467;-54
2022/06/28 02:06:02;;;;;;;0.40;0.20;;;;;;;14.32;100.00;100804.44;5054738;28;20455;-54
2022/06/28 02:08:29;;;;;;;0.40;0.20;;;;;;;14.48;100.00;100800.31;5054583;28;20491;-54
2022/06/28 02:10:59;;;;;;;0.40;0.20;;;;;;;14.42;100.00;100797.81;5054242;28;20982;-54
2022/06/28 02:13:25;;;;;;;0.40;0.20;;;;;;;14.46;100.00;100802.16;5054377;28;20473;-54
2022/06/28 02:15:52;;;;;;;0.40;0.20;;;;;;;14.44;100.00;100804.03;5054189;28;20454;-54
2022/06/28 02:18:19;;;;;;;0.40;0.20;;;;;;;14.32;100.00;100806.22;5054207;28;20888;-54
2022/06/28 02:20:45;;;;;;;0.40;0.20;;;;;;;14.09;100.00;100804.34;5054080;28;20447;-54
2022/06/28 02:23:12;;;;;;;0.40;0.20;;;;;;;13.98;100.00;100801.19;5049432;28;20472;-54
2022/06/28 02:25:39;;;;;;;0.40;0.20;;;;;;;13.99;100.00;100811.84;5049952;28;20457;-54
2022/06/28 02:28:05;;;;;;;0.40;0.20;;;;;;;13.96;100.00;100811.91;5044509;28;20564;-54
2022/06/28 02:30:32;;;;;;;0.40;0.20;;;;;;;14.04;100.00;100817.91;5053993;28;20450;-54
2022/06/28 02:32:59;;;;;;;0.40;0.20;;;;;;;13.99;100.00;100814.50;5053954;28;20467;-54
2022/06/28 02:40:55;;;;;;;0.40;0.20;;;;;;;13.95;100.00;100831.56;5053906;28;20453;-54
2022/06/28 02:43:21;;;;;;;0.40;0.20;;;;;;;14.04;100.00;100827.72;5053849;28;20478;-54
2022/06/28 02:45:49;;;;;;;0.40;0.30;;;;;;;14.13;100.00;100830.97;5054010;28;20451;-54
2022/06/28 02:48:16;;;;;;;0.40;0.20;;;;;;;14.05;100.00;100833.00;5053574;28;20999;-54
2022/06/28 02:50:42;;;;;;;0.40;0.20;;;;;;;13.87;100.00;100828.28;5053827;28;20451;-54
2022/06/28 02:53:09;;;;;;;0.40;0.20;;;;;;;13.84;100.00;100825.69;5050241;28;20844;-54
2022/06/28 02:55:35;;;;;;;0.40;0.20;;;;;;;13.95;100.00;100834.22;5053768;28;20470;-54
2022/06/28 02:58:02;;;;;;;0.40;0.20;;;;;;;13.71;100.00;100841.28;5053261;28;20442;-55
2022/06/28 03:00:28;;;;;;;0.40;0.20;;;;;;;13.72;100.00;100843.03;5053467;28;20453;-55
2022/06/28 03:02:55;;;;;;;0.40;0.20;;;;;;;13.75;100.00;100845.59;5053488;28;20470;-54
2022/06/28 03:05:22;;;;;;;0.40;0.20;;;;;;;13.66;100.00;100845.88;5053558;28;20466;-54
2022/06/28 03:07:48;;;;;;;0.40;0.20;;;;;;;13.67;100.00;100850.31;5053261;28;20486;-54
2022/06/28 03:10:15;;;;;;;0.40;0.20;;;;;;;13.75;100.00;100858.97;5053324;28;20467;-54
2022/06/28 03:12:42;;;;;;;0.40;0.20;;;;;;;13.64;100.00;100859.28;5053046;28;20470;-55
2022/06/28 03:15:11;;;;;;;0.40;0.20;;;;;;;13.54;100.00;100863.19;5053414;28;20451;-54
2022/06/28 03:17:37;;;;;;;0.40;0.20;;;;;;;13.50;100.00;100860.66;5053023;28;21030;-55
2022/06/28 03:20:04;;;;;;;0.40;0.20;;;;;;;13.60;100.00;100859.47;5043415;28;20450;-54
2022/06/28 03:22:30;;;;;;;0.40;0.20;;;;;;;13.77;100.00;100865.13;5049839;28;20475;-54
2022/06/28 03:24:57;;;;;;;0.40;0.20;;;;;;;13.64;100.00;100867.31;5043909;28;20462;-54
2022/06/28 03:27:23;;;;;;;0.40;0.20;;;;;;;13.67;100.00;100865.47;5043756;28;20465;-54
2022/06/28 03:29:51;;;;;;;0.40;0.20;;;;;;;13.51;100.00;100870.41;5053021;28;20490;-54
2022/06/28 03:32:18;;;;;;;0.40;0.20;;;;;;;13.43;100.00;100865.34;5052884;28;20477;-54
2022/06/28 03:34:45;;;;;;;0.40;0.20;;;;;;;13.31;100.00;100884.41;5052921;28;20477;-54
2022/06/28 03:37:12;;;;;;;0.40;0.20;;;;;;;13.27;100.00;100875.59;5052747;28;20446;-54
2022/06/28 03:39:38;;;;;;;0.40;0.20;;;;;;;13.38;100.00;100874.38;5052357;28;20497;-54
2022/06/28 03:42:05;;;;;;;0.40;0.20;;;;;;;13.43;100.00;100872.44;5033052;28;20458;-55
2022/06/28 03:44:31;;;;;;;0.40;0.20;;;;;;;13.41;100.00;100879.63;5044204;28;20447;-55
2022/06/28 03:46:58;;;;;;;0.40;0.20;;;;;;;13.26;100.00;100872.97;5052653;28;20455;-55
2022/06/28 03:49:24;;;;;;;0.40;0.20;;;;;;;13.58;100.00;100877.34;5052653;28;20491;-54
2022/06/28 03:51:51;;;;;;;0.40;0.20;;;;;;;13.60;100.00;100878.16;5052548;28;20446;-54
2022/06/28 03:54:17;;;;;;;0.40;0.20;;;;;;;13.64;100.00;100874.44;5049119;28;21009;-55
2022/06/28 03:56:44;;;;;;;0.40;0.20;;;;;;;13.85;100.00;100875.56;5048960;28;20458;-54
2022/06/28 03:59:10;;;;;;;0.40;0.20;;;;;;;13.77;100.00;100873.13;5043514;28;20944;-54
2022/06/28 04:01:37;;;;;;;0.40;0.20;;;;;;;13.72;100.00;100876.91;5038912;28;20984;-54
2022/06/28 04:04:03;;;;;;;0.40;0.20;;;;;;;13.75;100.00;100877.66;5041542;28;20503;-54
2022/06/28 04:06:30;;;;;;;0.40;0.20;;;;;;;13.69;100.00;100891.19;5049855;28;20485;-54
2022/06/28 04:08:56;;;;;;;0.30;0.20;;;;;;;13.75;100.00;100892.81;5052173;28;20715;-54
2022/06/28 04:11:23;;;;;;;0.40;0.20;;;;;;;13.77;100.00;100891.84;5052311;28;20447;-55
2022/06/28 04:13:52;;;;;;;0.40;0.20;;;;;;;13.85;100.00;100894.28;5052194;28;20474;-54
2022/06/28 04:16:20;;;;;;;0.40;0.20;;;;;;;13.79;100.00;100891.78;5052217;28;20504;-54
2022/06/28 04:18:47;;;;;;;0.40;0.20;;;;;;;13.93;100.00;100889.53;5052281;28;20446;-55
2022/06/28 04:21:17;;;;;;;0.40;0.20;;;;;;;13.97;100.00;100892.97;5038719;28;20480;-54
2022/06/28 04:23:43;;;;;;;0.30;0.20;;;;;;;13.99;100.00;100884.00;5043281;28;20478;-55
2022/06/28 04:26:10;;;;;;;0.40;0.20;;;;;;;13.97;100.00;100891.19;5049720;28;20447;-54
2022/06/28 04:28:37;;;;;;;0.40;0.20;;;;;;;14.19;100.00;100884.19;5045754;28;20487;-54
2022/06/28 04:31:04;;;;;;;0.40;0.20;;;;;;;14.90;100.00;100881.75;5052179;28;20454;-55
2022/06/28 04:33:31;;;;;;;0.40;0.20;;;;;;;15.60;100.00;100885.31;5050534;28;20478;-54
2022/06/28 04:35:57;;;;;;;0.30;0.20;;;;;;;16.34;100.00;100888.53;5051939;28;20457;-54
2022/06/28 04:38:24;;;;;;;0.40;0.20;;;;;;;16.95;100.00;100893.03;5052124;28;20458;-55
2022/06/28 04:40:51;;;;;;;0.40;0.20;;;;;;;17.24;98.60;100899.75;5051924;28;20940;-54
2022/06/28 04:43:17;;;;;;;0.40;0.20;;;;;;;17.74;96.44;100894.72;5051698;28;20486;-54
2022/06/28 04:45:44;;;;;;;0.40;0.20;;;;;;;18.00;94.46;100894.31;5050810;28;20449;-55
2022/06/28 04:48:10;;;;;;;0.40;0.20;;;;;;;18.53;93.45;100890.72;5051681;28;20828;-54
2022/06/28 04:50:37;;;;;;;0.40;0.20;;;;;;;18.86;92.02;100888.09;5050706;28;20825;-55
2022/06/28 04:53:03;;;;;;;0.40;0.20;;;;;;;18.67;92.07;100892.72;5050766;28;20507;-54
2022/06/28 04:55:29;;;;;;;0.40;0.20;;;;;;;18.75;92.33;100886.91;5055930;28;20450;-55
2022/06/28 04:57:56;;;;;;;0.40;0.20;;;;;;;18.99;91.24;100898.22;5054690;28;20446;-55
2022/06/28 05:00:22;;;;;;;0.40;0.20;;;;;;;19.36;90.61;100887.19;5055729;28;20457;-55
2022/06/28 05:03:06;;;;;;;0.40;0.20;;;;;;;19.52;88.94;100893.44;5055930;28;20467;-54
2022/06/28 05:05:33;;;;;;;0.40;0.20;;;;;;;19.69;88.95;100887.13;5055587;28;20447;-54
2022/06/28 05:07:59;;;;;;;0.40;0.20;;;;;;;20.03;87.39;100888.78;5055724;28;20450;-55
2022/06/28 05:10:26;;;;;;;0.40;0.20;;;;;;;20.44;85.79;100885.50;5055639;28;21002;-55
2022/06/28 05:12:52;;;;;;;0.40;0.20;;;;;;;20.07;87.23;100889.47;5055533;28;20481;-55
2022/06/28 05:15:18;;;;;;;0.40;0.20;;;;;;;19.96;88.31;100891.91;5055833;28;20820;-54
2022/06/28 05:17:45;;;;;;;0.40;0.20;;;;;;;20.20;88.83;100892.31;5055351;28;20507;-54
2022/06/28 05:20:11;;;;;;;0.40;0.20;;;;;;;20.26;87.76;100892.81;5044746;28;20444;-54
2022/06/28 05:22:38;;;;;;;0.40;0.20;;;;;;;20.35;87.60;100888.69;5052946;28;20466;-55
2022/06/28 05:25:05;;;;;;;0.40;0.20;;;;;;;20.53;87.07;100882.22;5046640;28;20856;-55
2022/06/28 05:27:32;;;;;;;0.40;0.20;;;;;;;20.67;86.91;100890.34;5046218;28;20450;-55
2022/06/28 05:29:58;;;;;;;0.40;0.20;;;;;;;20.50;86.54;100884.25;5055153;28;20486;-55
2022/06/28 05:32:25;;;;;;;0.40;0.20;;;;;;;20.25;88.70;100884.78;5055055;28;20502;-55
2022/06/28 05:34:51;;;;;;;0.40;0.20;;;;;;;20.36;87.69;100893.13;5055268;28;20451;-54
2022/06/28 05:37:17;;;;;;;0.40;0.20;;;;;;;20.17;88.89;100892.50;5055169;28;20477;-55
2022/06/28 05:39:44;;;;;;;0.40;0.20;;;;;;;20.35;88.13;100891.41;5055085;28;20449;-54
2022/06/28 05:42:12;;;;;;;0.40;0.20;;;;;;;21.17;85.69;100885.50;5054971;28;20516;-55
2022/06/28 05:44:38;;;;;;;0.40;0.20;;;;;;;20.91;84.93;100884.41;5054985;28;20521;-55
2022/06/28 05:47:05;;;;;;;0.40;0.20;;;;;;;20.69;86.15;100874.91;5054775;28;20794;-55
2022/06/28 05:49:32;;;;;;;0.40;0.20;;;;;;;20.73;86.73;100882.84;5054937;28;20487;-54
2022/06/28 05:51:58;;;;;;;0.40;0.20;;;;;;;20.97;86.65;100884.91;5054652;28;20456;-54
2022/06/28 05:54:25;;;;;;;0.40;0.20;;;;;;;20.75;86.78;100884.50;5053002;28;20494;-54
2022/06/28 05:56:51;;;;;;;0.40;0.20;;;;;;;21.14;85.81;100889.25;5054746;28;20457;-55
2022/06/28 05:59:18;;;;;;;0.40;0.20;;;;;;;21.45;84.52;100885.50;5054607;28;20450;-55
2022/06/28 06:01:44;;;;;;;0.40;0.20;;;;;;;20.70;86.62;100883.91;5054484;28;20447;-55
2022/06/28 06:04:11;;;;;;;0.40;0.20;;;;;;;20.44;88.20;100890.03;5054151;28;20467;-55
2022/06/28 06:06:37;;;;;;;0.40;0.20;;;;;;;20.88;87.20;100884.63;5054658;28;20512;-55
2022/06/28 06:09:03;;;;;;;0.40;0.20;;;;;;;20.75;87.54;100883.63;5054477;28;21017;-55
2022/06/28 06:11:30;;;;;;;0.40;0.20;;;;;;;20.89;87.15;100887.22;5041190;28;20455;-54
2022/06/28 06:13:56;;;;;;;0.40;0.20;;;;;;;21.57;85.05;100883.84;5054169;28;20480;-55
2022/06/28 06:16:23;;;;;;;0.40;0.30;;;;;;;20.99;86.43;100879.41;5054524;28;20457;-55
2022/06/28 06:18:49;;;;;;;0.40;0.20;;;;;;;21.13;86.36;100890.22;5054189;28;20450;-54
2022/06/28 06:21:16;;;;;;;0.40;0.20;;;;;;;21.42;86.69;100883.00;5040984;28;20447;-55
2022/06/28 06:23:42;;;;;;;0.40;0.20;;;;;;;21.73;85.33;100883.72;5045219;28;20471;-55
2022/06/28 06:26:09;;;;;;;0.40;0.20;;;;;;;21.40;86.21;100884.06;5051706;28;20830;-54
2022/06/28 06:28:35;;;;;;;0.40;0.20;;;;;;;22.11;83.72;100889.34;5047591;28;20954;-55
2022/06/28 06:31:03;;;;;;;0.40;0.30;;;;;;;21.96;85.02;100884.91;5027856;28;20993;-54
2022/06/28 06:33:30;;;;;;;0.40;0.20;;;;;;;21.73;85.11;100889.13;5054012;28;20453;-55
2022/06/28 06:35:56;;;;;;;0.40;0.20;;;;;;;21.59;86.29;100887.31;5054064;28;20450;-55
2022/06/28 06:38:22;;;;;;;0.40;0.20;;;;;;;21.62;86.09;100886.25;5053866;28;20481;-55
2022/06/28 06:40:49;;;;;;;0.40;0.20;;;;;;;21.77;87.09;100882.53;5053755;28;20428;-55
2022/06/28 06:43:16;;;;;;;0.40;0.20;;;;;;;22.20;84.40;100891.41;5053720;28;20455;-55
2022/06/28 06:45:45;;;;;;;0.40;0.20;;;;;;;21.44;87.17;100883.78;5053951;28;20417;-55
2022/06/28 06:48:11;;;;;;;0.40;0.30;;;;;;;21.70;88.11;100889.34;5053802;28;20530;-55
2022/06/28 06:50:37;;;;;;;0.40;0.20;;;;;;;21.72;86.96;100885.56;5053745;28;20552;-54
2022/06/28 06:53:04;;;;;;;0.40;0.20;;;;;;;21.93;86.68;100887.81;5050699;28;20446;-55
2022/06/28 06:55:31;;;;;;;0.40;0.20;;;;;;;22.18;86.66;100891.50;5053565;28;20817;-55
2022/06/28 06:57:57;;;;;;;0.40;0.20;;;;;;;21.69;87.58;100879.47;5053700;28;20446;-54
2022/06/28 07:00:24;;;;;;;0.40;0.20;;;;;;;22.31;85.18;100874.44;5053828;28;20455;-55
2022/06/28 07:02:50;;;;;;;6.00;2.50;;;;;;;22.02;84.68;100879.06;5053376;28;20847;-55
2022/06/28 07:05:17;;;;;;;0.40;0.20;;;;;;;21.43;87.68;100868.50;5053426;28;20875;-55
2022/06/28 07:07:44;;;;;;;0.40;0.20;;;;;;;21.66;87.94;100871.56;5053368;28;20798;-54
2022/06/28 07:10:11;;;;;;;0.40;0.40;;;;;;;21.85;87.47;100863.97;5053282;28;20490;-55
2022/06/28 07:12:44;;;;;;;0.40;0.30;;;;;;;21.91;87.70;100866.25;5053110;28;20911;-55
2022/06/28 07:15:11;;;;;;;0.40;0.20;;;;;;;22.27;84.53;100859.38;5052470;28;20457;-54
2022/06/28 07:17:37;;;;;;;0.40;0.20;;;;;;;22.37;85.55;100857.78;5053305;28;20450;-55
2022/06/28 07:20:05;;;;;;;0.40;0.20;;;;;;;22.10;85.80;100861.38;5043427;28;20440;-55
2022/06/28 07:22:33;;;;;;;0.40;0.20;;;;;;;22.03;88.02;100862.72;5049735;28;20613;-55
2022/06/28 07:24:59;;;;;;;0.50;0.50;;;;;;;22.07;87.75;100867.03;5043970;28;20457;-55
2022/06/28 07:27:26;;;;;;;0.40;0.20;;;;;;;21.65;88.91;100867.97;5043653;28;20455;-54
2022/06/28 07:29:53;;;;;;;0.40;0.20;;;;;;;22.10;86.74;100876.78;5053194;28;20486;-55
2022/06/28 07:32:20;;;;;;;0.40;0.30;;;;;;;21.94;87.02;100871.47;5052858;28;20471;-55
2022/06/28 07:34:47;;;;;;;0.40;0.30;;;;;;;22.23;86.35;100861.44;5053325;28;20447;-55
2022/06/28 07:37:14;;;;;;;0.40;0.20;;;;;;;22.36;85.36;100866.88;5053017;28;20436;-55
2022/06/28 07:39:40;;;;;;;0.40;0.20;;;;;;;22.20;86.59;100867.03;5052802;28;20421;-55
2022/06/28 07:42:07;;;;;;;0.40;0.30;;;;;;;22.44;84.20;100864.50;5052677;28;20854;-56
2022/06/28 07:44:33;;;;;;;0.40;0.20;;;;;;;23.01;80.12;100865.00;5053187;28;20449;-55
2022/06/28 07:47:00;;;;;;;0.40;0.20;;;;;;;22.81;81.13;100861.94;5052677;28;20455;-55
2022/06/28 07:52:33;;;;;;;0.40;0.20;;;;;;;22.70;81.34;100860.84;5052565;28;20490;-55
2022/06/28 07:55:14;;;;;;;0.40;0.20;;;;;;;22.83;76.21;100860.03;5028572;28;20466;-55
2022/06/28 07:57:41;;;;;;;0.40;0.20;;;;;;;22.56;76.42;100862.78;5047824;28;20457;-55
2022/06/28 08:00:08;;;;;;;0.40;0.20;;;;;;;22.86;74.19;100854.38;5052276;28;20423;-54
2022/06/28 08:02:34;;;;;;;0.40;0.20;;;;;;;22.53;71.05;100853.03;5052532;28;20456;-54
2022/06/28 08:05:01;;;;;;;0.40;0.20;;;;;;;22.94;72.03;100846.59;5052510;28;20426;-55
2022/06/28 08:07:28;;;;;;;0.40;0.20;;;;;;;23.09;71.19;100829.22;5052620;28;20466;-55
2022/06/28 08:09:54;;;;;;;0.40;0.20;;;;;;;23.13;69.55;100829.84;5052144;28;20469;-55
2022/06/28 08:12:21;;;;;;;0.40;0.20;;;;;;;22.69;64.73;100831.16;5052199;28;20478;-55
2022/06/28 08:14:47;;;;;;;0.40;0.20;;;;;;;23.37;64.99;100824.47;5052097;28;20432;-55
2022/06/28 08:17:14;;;;;;;0.40;0.30;;;;;;;23.77;62.61;100820.56;5052143;28;20446;-55
2022/06/28 08:19:41;;;;;;;0.40;0.20;;;;;;;23.24;64.95;100819.94;5045544;28;20815;-55
2022/06/28 08:22:07;;;;;;;0.40;0.20;;;;;;;23.55;62.91;100829.41;5045536;28;20450;-55
2022/06/28 08:24:34;;;;;;;0.40;0.20;;;;;;;23.16;64.53;100824.19;5042387;28;20421;-54
2022/06/28 08:27:00;;;;;;;0.40;0.20;;;;;;;23.80;62.71;100814.03;5042392;28;20456;-55
2022/06/28 08:29:27;;;;;;;0.40;0.20;;;;;;;23.31;61.14;100812.25;5038941;28;20490;-54
2022/06/28 08:31:53;;;;;;;0.40;0.30;;;;;;;23.97;59.51;100815.47;5051951;28;20510;-55
2022/06/28 08:34:20;;;;;;;0.40;0.20;;;;;;;23.77;61.15;100806.13;5052186;28;20447;-55
2022/06/28 08:36:46;;;;;;;0.40;0.20;;;;;;;23.28;59.70;100813.31;5052048;28;20425;-55
2022/06/28 08:39:13;;;;;;;0.40;0.20;;;;;;;23.38;59.92;100820.78;5026223;28;20808;-55
2022/06/28 08:41:42;;;;;;;0.40;0.20;;;;;;;23.63;61.04;100808.03;5051745;28;20585;-55
2022/06/28 08:44:10;;;;;;;0.40;0.20;;;;;;;23.76;58.98;100802.56;5052256;28;20999;-55
2022/06/28 08:46:38;;;;;;;0.40;0.20;;;;;;;23.86;58.73;100800.03;5051970;28;20421;-55
2022/06/28 08:49:23;;;;;;;0.40;0.20;;;;;;;23.77;55.90;100808.84;5052093;28;20454;-55
2022/06/28 08:51:52;;;;;;;0.40;0.20;;;;;;;24.13;55.21;100816.94;5051871;28;20422;-55
2022/06/28 08:54:19;;;;;;;0.40;0.20;;;;;;;23.81;54.56;100810.34;5048291;28;20473;-55
2022/06/28 08:56:46;;;;;;;0.40;0.20;;;;;;;23.70;55.66;100807.56;5051881;28;20447;-54
2022/06/28 08:59:14;;;;;;;0.40;0.20;;;;;;;24.01;55.23;100800.69;5051987;28;20432;-55
2022/06/28 09:01:40;;;;;;;0.40;0.20;;;;;;;23.80;53.19;100805.91;5052116;28;20447;-54
2022/06/28 09:04:08;;;;;;;0.40;0.20;;;;;;;23.61;52.66;100796.44;5039759;28;20475;-55
2022/06/28 09:06:37;;;;;;;0.40;0.20;;;;;;;23.64;54.70;100793.47;5049777;28;20446;-55
2022/06/28 09:09:04;;;;;;;0.40;0.20;;;;;;;23.90;52.49;100790.66;5051958;28;20437;-55
2022/06/28 09:11:38;;;;;;;0.40;0.20;;;;;;;24.29;51.51;100785.84;5051869;28;20431;-55
2022/06/28 09:14:27;;;;;;;0.40;0.20;;;;;;;24.04;52.42;100784.16;5051601;28;20983;-54
2022/06/28 09:16:55;;;;;;;0.40;0.20;;;;;;;25.04;52.30;100776.22;5030634;28;20922;-55
2022/06/28 09:19:38;;;;;;;0.40;0.20;;;;;;;24.65;54.45;100776.66;5047592;28;20438;-55
2022/06/28 09:22:05;;;;;;;0.40;0.30;;;;;;;24.42;54.37;100762.19;5044641;28;20902;-55
2022/06/28 09:24:32;;;;;;;0.40;0.30;;;;;;;24.01;51.65;100762.69;5042392;28;20430;-55
2022/06/28 09:27:02;;;;;;;0.40;0.20;;;;;;;24.29;52.22;100762.25;5042432;28;20433;-55
2022/06/28 09:29:30;;;;;;;0.40;0.20;;;;;;;23.79;52.98;100766.16;5025832;28;20544;-54
2022/06/28 09:31:56;;;;;;;0.40;0.20;;;;;;;24.12;53.73;100757.25;5051324;28;20422;-55
2022/06/28 09:34:23;;;;;;;0.40;0.20;;;;;;;24.57;54.25;100749.25;5051577;28;20453;-55
2022/06/28 09:36:55;;;;;;;0.40;0.20;;;;;;;24.67;52.27;100751.13;5051507;28;20465;-55
2022/06/28 09:39:27;;;;;;;0.40;0.20;;;;;;;24.25;52.13;100739.00;5053378;28;20489;-55
2022/06/28 09:41:55;;;;;;;0.40;0.30;;;;;;;24.84;52.13;100730.72;5039126;28;20428;-55
2022/06/28 09:44:51;;;;;;;0.40;0.20;;;;;;;25.22;52.67;100730.31;5050343;28;20491;-54
2022/06/28 09:47:18;;;;;;;0.40;0.20;;;;;;;25.49;50.63;100729.00;5054819;28;20488;-55
2022/06/28 09:49:47;;;;;;;0.63;0.63;;;;;;;25.20;49.38;100725.97;5055220;28;20465;-55
2022/06/28 09:52:15;;;;;;;0.40;0.20;;;;;;;25.12;49.76;100723.91;5028639;28;20453;-55
2022/06/28 09:54:45;;;;;;;0.40;0.20;;;;;;;24.73;50.79;100723.41;5051099;28;20919;-55
2022/06/28 09:57:12;;;;;;;0.40;0.20;;;;;;;25.28;50.34;100718.91;5054840;28;20447;-55
2022/06/28 09:59:39;;;;;;;0.40;0.20;;;;;;;25.49;50.22;100716.25;5054759;28;20447;-55
2022/06/28 10:02:10;;;;;;;1.37;1.37;;;;;;;25.32;48.26;100719.50;5054445;28;20460;-55
2022/06/28 10:04:37;;;;;;;0.40;0.20;;;;;;;25.75;45.12;100705.03;5054377;28;20932;-55
2022/06/28 10:07:10;;;;;;;0.40;0.20;;;;;;;25.18;45.05;100717.06;5054406;28;20445;-55
2022/06/28 10:09:37;;;;;;;0.40;0.20;;;;;;;25.27;43.15;100713.59;5054246;28;20425;-54
2022/06/28 10:15:01;;;;;;;0.40;0.20;;;;;;;24.93;46.31;100710.91;5054221;28;20417;-54
2022/06/28 10:17:59;;;;;;;0.40;0.20;;;;;;;24.92;44.50;100709.16;5053943;28;20454;-54
2022/06/28 10:20:34;;;;;;;0.70;0.70;;;;;;;24.92;45.64;100700.16;5041681;28;20446;-54
2022/06/28 10:23:19;;;;;;;0.40;0.20;;;;;;;25.23;46.51;100714.84;5026309;28;20464;-55
2022/06/28 10:26:08;;;;;;;0.40;0.20;;;;;;;25.40;46.58;100717.03;5051104;28;20450;-55
2022/06/28 10:28:40;;;;;;;0.40;0.30;;;;;;;25.24;45.37;100712.00;5041385;28;20451;-55
2022/06/28 10:31:24;;;;;;;0.40;0.20;;;;;;;25.22;44.41;100703.13;5028915;28;20577;-55
2022/06/28 10:34:15;;;;;;;0.40;0.20;;;;;;;25.24;43.94;100706.56;5053886;28;20553;-55
2022/06/28 10:36:49;;;;;;;0.40;0.20;;;;;;;25.43;44.50;100703.16;5053744;28;20946;-55
2022/06/28 10:39:34;;;;;;;0.40;0.27;;;;;;;25.27;43.30;100709.03;5054042;28;20420;-55
2022/06/28 10:42:00;;;;;;;0.40;0.20;;;;;;;25.37;43.31;100699.09;5053421;28;20498;-55
2022/06/28 10:44:47;;;;;;;0.40;0.20;;;;;;;25.17;43.83;100696.31;5053533;28;20437;-55
2022/06/28 10:47:17;;;;;;;0.40;0.20;;;;;;;25.37;44.29;100696.38;5054360;28;20461;-55
2022/06/28 10:49:46;;;;;;;0.40;0.30;;;;;;;25.47;43.62;100688.28;5053636;28;20548;-55
2022/06/28 10:52:18;;;;;;;0.40;0.20;;;;;;;25.04;43.58;100681.00;5051991;28;20447;-55
2022/06/28 10:54:54;;;;;;;0.40;0.20;;;;;;;25.69;43.46;100677.34;5051298;28;20453;-54
2022/06/28 10:57:23;;;;;;;0.40;0.20;;;;;;;25.13;42.42;100673.06;5053351;28;20420;-54
2022/06/28 10:59:52;;;;;;;0.40;0.20;;;;;;;25.64;41.79;100660.50;5053484;28;20440;-55
2022/06/28 11:02:19;;;;;;;0.40;0.23;;;;;;;25.68;41.81;100661.09;5053672;28;20521;-54
2022/06/28 11:05:01;;;;;;;0.40;0.20;;;;;;;25.25;42.13;100650.28;5052949;28;20464;-55
2022/06/28 11:07:30;;;;;;;0.40;0.20;;;;;;;25.76;43.69;100653.16;5051839;28;20429;-54
2022/06/28 11:10:09;;;;;;;0.40;0.20;;;;;;;25.82;42.36;100640.88;5026793;28;20494;-55
2022/06/28 11:12:38;;;;;;;0.40;0.20;;;;;;;25.62;41.89;100646.13;5052985;28;20451;-55
2022/06/28 11:15:26;;;;;;;0.40;0.20;;;;;;;25.39;41.21;100641.81;5053684;28;20461;-55
2022/06/28 11:17:53;;;;;;;0.40;0.20;;;;;;;25.66;40.48;100622.25;5037207;28;20427;-55
2022/06/28 11:20:22;;;;;;;0.40;0.23;;;;;;;26.36;40.78;100627.00;5033390;28;20949;-55
2022/06/28 11:22:50;;;;;;;0.40;0.20;;;;;;;25.98;39.73;100627.63;5050626;28;20467;-54
2022/06/28 11:25:21;;;;;;;0.40;0.20;;;;;;;26.03;38.56;100632.66;5045595;28;20475;-55
2022/06/28 11:27:56;;;;;;;0.40;0.20;;;;;;;26.30;38.77;100630.22;5043230;28;20426;-55
2022/06/28 11:30:28;;;;;;;0.40;0.20;;;;;;;26.25;39.90;100627.06;5052447;28;20876;-54
2022/06/28 11:32:57;;;;;;;0.40;0.23;;;;;;;26.02;39.11;100620.06;5052825;28;20445;-55
2022/06/28 11:35:27;;;;;;;0.40;0.20;;;;;;;26.05;40.24;100619.81;5052956;28;20453;-55
2022/06/28 11:37:56;;;;;;;0.40;0.20;;;;;;;25.67;38.92;100626.69;5053194;28;20428;-55
2022/06/28 11:40:41;;;;;;;0.40;0.20;;;;;;;26.08;39.60;100616.81;5052680;28;20447;-54